Time;durP1;ratioP1;P1;durP2;ratioP2;P2;SDS_P1;SDS_P2;PMS_P1;PMS_P2;Temp;Humidity;BMP_temperature;BMP_pressure;BME280_temperature;BME280_humidity;BME280_pressure;Samples;Min_cycle;Max_cycle;Signal;HPM_P1;HPM_P2
2022/09/13 00:07:58;;;;;;;10.93;2.40;;;26.40;38.30;;;;;;20841274;28;20024;-58
2022/09/13 00:18:00;;;;;;;8.80;2.23;;;26.30;38.50;;;;;;20840703;28;20069;-58
2022/09/13 00:28:02;;;;;;;7.63;2.10;;;26.30;37.70;;;;;;20839936;28;20061;-58
2022/09/13 00:38:04;;;;;;;6.75;1.98;;;26.40;36.30;;;;;;20838951;28;20053;-59
2022/09/13 00:48:08;;;;;;;30.60;3.93;;;26.50;36.30;;;;;;20838776;28;20049;-59
2022/09/13 00:58:15;;;;;;;15.82;2.13;;;26.40;36.70;;;;;;20838860;28;20054;-59
2022/09/13 01:08:24;;;;;;;12.05;1.00;;;26.30;37.10;;;;;;20836817;28;20144;-59
2022/09/13 01:18:25;;;;;;;7.68;1.30;;;26.10;37.60;;;;;;20836391;28;20052;-59
2022/09/13 01:28:58;;;;;;;7.60;1.10;;;25.90;38.70;;;;;;20835518;28;20064;-58
2022/09/13 01:39:14;;;;;;;18.60;1.73;;;25.90;39.00;;;;;;20834360;28;20091;-60
2022/09/13 01:49:42;;;;;;;4.28;0.80;;;25.50;44.50;;;;;;20817248;28;20612;-60
2022/09/13 01:59:47;;;;;;;2.78;0.70;;;24.60;49.70;;;;;;20833294;28;20045;-59
2022/09/13 02:10:05;;;;;;;4.65;1.58;;;23.90;52.40;;;;;;20831800;28;20049;-58
2022/09/13 02:20:24;;;;;;;5.38;1.30;;;23.80;53.30;;;;;;20832239;28;20051;-59
2022/09/13 02:30:30;;;;;;;4.60;1.33;;;23.20;58.70;;;;;;20830477;28;20046;-58
2022/09/13 02:40:41;;;;;;;5.43;1.35;;;22.70;62.30;;;;;;20830434;28;20053;-59
2022/09/13 02:51:16;;;;;;;8.15;2.50;;;22.20;64.90;;;;;;20831010;28;20099;-58
2022/09/13 03:01:18;;;;;;;8.15;2.42;;;22.20;64.90;;;;;;20578383;28;20046;-59
2022/09/13 03:11:54;;;;;;;12.27;3.70;;;22.30;65.40;;;;;;20578078;28;20054;-57
2022/09/13 03:22:28;;;;;;;12.52;2.97;;;22.20;67.10;;;;;;20342773;29;20060;-58
2022/09/13 03:32:32;;;;;;;13.48;3.83;;;22.10;68.50;;;;;;20379703;29;20175;-58
2022/09/13 03:42:37;;;;;;;13.93;3.65;;;21.90;69.00;;;;;;20511740;28;20047;-57
2022/09/13 03:52:39;;;;;;;13.45;3.58;;;22.00;69.40;;;;;;20557602;28;20050;-58
2022/09/13 04:02:41;;;;;;;9.93;3.77;;;21.90;70.30;;;;;;20678948;28;20049;-60
2022/09/13 04:12:43;;;;;;;10.43;4.40;;;21.70;71.70;;;;;;20678830;28;20050;-59
2022/09/13 04:22:51;;;;;;;9.82;3.50;;;21.60;72.20;;;;;;20677634;28;20085;-57
2022/09/13 04:32:58;;;;;;;11.88;3.67;;;21.50;72.20;;;;;;20795093;28;20054;-58
2022/09/13 04:43:00;;;;;;;13.95;3.55;;;21.40;72.70;;;;;;20839529;28;20091;-58
2022/09/13 04:53:02;;;;;;;10.17;3.20;;;21.30;72.50;;;;;;20837881;28;20053;-58
2022/09/13 05:03:04;;;;;;;5.67;2.83;;;21.20;71.90;;;;;;20837257;28;20088;-58
2022/09/13 05:13:05;;;;;;;11.02;4.10;;;21.20;73.00;;;;;;20836326;28;20050;-58
2022/09/13 05:23:07;;;;;;;12.87;3.60;;;21.10;71.60;;;;;;20835579;28;20462;-60
2022/09/13 05:33:09;;;;;;;6.53;3.17;;;21.10;73.30;;;;;;20834735;28;20080;-59
2022/09/13 05:43:11;;;;;;;9.32;3.35;;;21.20;73.70;;;;;;20815754;28;20049;-58
2022/09/13 05:53:12;;;;;;;26.00;5.97;;;21.00;73.70;;;;;;20835078;28;20409;-58
2022/09/13 06:03:14;;;;;;;14.52;4.90;;;21.00;72.10;;;;;;20832657;28;20096;-58
2022/09/13 06:13:16;;;;;;;14.45;4.63;;;20.50;76.60;;;;;;20832564;28;20136;-59
2022/09/13 06:23:18;;;;;;;11.63;3.55;;;20.70;76.30;;;;;;20831742;28;20397;-59
2022/09/13 06:33:19;;;;;;;20.75;4.97;;;20.70;76.00;;;;;;20830520;28;20054;-57
2022/09/13 06:43:21;;;;;;;19.33;6.43;;;20.90;73.50;;;;;;20830182;28;20087;-58
2022/09/13 06:53:22;;;;;;;10.65;3.90;;;21.20;74.30;;;;;;20829430;28;20057;-59
2022/09/13 07:03:26;;;;;;;12.68;4.18;;;21.20;73.70;;;;;;20845413;28;20477;-57
2022/09/13 07:13:28;;;;;;;16.20;4.53;;;21.30;73.50;;;;;;20845766;28;20485;-58
2022/09/13 07:23:31;;;;;;;10.63;3.90;;;21.30;73.70;;;;;;20846074;28;20080;-57
2022/09/13 07:33:33;;;;;;;17.20;3.97;;;21.30;72.10;;;;;;20760510;28;20197;-57
2022/09/13 07:43:35;;;;;;;18.77;4.70;;;21.40;72.20;;;;;;20761518;28;20395;-58
2022/09/13 07:53:39;;;;;;;11.57;4.45;;;21.30;71.90;;;;;;20760439;28;20053;-58
2022/09/13 08:03:41;;;;;;;;;;;21.30;73.30;;;;;;20760009;28;20052;-58
2022/09/13 08:13:42;;;;;;;12.05;4.18;;;21.40;72.90;;;;;;20758618;28;19921;-59
2022/09/13 08:23:44;;;;;;;14.07;5.07;;;21.40;74.40;;;;;;20759198;28;20045;-59
2022/09/13 08:33:47;;;;;;;14.43;4.20;;;21.50;73.70;;;;;;20824617;28;20068;-58
2022/09/13 08:44:13;;;;;;;17.00;5.13;;;21.70;72.60;;;;;;20840334;28;20052;-58
2022/09/13 08:54:16;;;;;;;9.35;4.15;;;22.10;70.80;;;;;;20825834;28;20486;-56
2022/09/13 09:04:27;;;;;;;13.70;4.10;;;23.10;65.90;;;;;;20838353;28;20164;-55
2022/09/13 09:14:34;;;;;;;15.93;3.92;;;23.60;64.20;;;;;;20828200;28;20056;-56
2022/09/13 09:24:39;;;;;;;10.30;3.50;;;23.80;64.30;;;;;;20788138;28;20131;-57
2022/09/13 09:35:16;;;;;;;11.50;3.33;;;24.00;64.00;;;;;;20834677;28;20092;-56
2022/09/13 09:45:24;;;;;;;9.25;3.80;;;23.80;64.70;;;;;;20502890;28;20051;-56
2022/09/13 09:55:29;;;;;;;9.38;4.25;;;23.60;65.80;;;;;;20482656;28;20048;-55
2022/09/13 10:05:31;;;;;;;15.43;4.95;;;23.70;66.10;;;;;;20446531;28;20091;-55
2022/09/13 10:15:34;;;;;;;13.87;4.63;;;23.60;66.90;;;;;;20511611;28;20116;-54
2022/09/13 10:25:37;;;;;;;8.38;3.58;;;23.80;65.70;;;;;;20781065;28;20402;-60
2022/09/13 10:35:40;;;;;;;6.82;2.30;;;24.00;64.40;;;;;;20829310;28;20076;-55
2022/09/13 10:45:42;;;;;;;4.65;2.13;;;24.30;63.00;;;;;;20831269;28;20045;-55
2022/09/13 10:55:53;;;;;;;7.50;2.40;;;24.40;62.20;;;;;;20830682;28;20060;-62
2022/09/13 11:06:13;;;;;;;7.45;2.22;;;24.40;62.90;;;;;;20828618;28;20041;-55
2022/09/13 11:16:33;;;;;;;10.10;2.90;;;24.60;62.00;;;;;;20795874;28;20516;-55
2022/09/13 11:26:58;;;;;;;6.43;2.72;;;24.60;61.70;;;;;;20827519;28;20093;-57
2022/09/13 11:37:25;;;;;;;6.80;2.78;;;25.10;59.90;;;;;;20793123;28;20060;-58
2022/09/13 11:47:47;;;;;;;4.38;2.22;;;25.30;57.80;;;;;;20821240;28;20486;-61
2022/09/13 11:57:54;;;;;;;5.07;2.30;;;25.30;57.80;;;;;;20842533;28;20137;-59
2022/09/13 12:08:02;;;;;;;2.55;1.63;;;25.60;56.50;;;;;;20838862;28;20055;-59
2022/09/13 12:18:16;;;;;;;7.00;3.67;;;25.40;56.10;;;;;;20841084;28;20046;-57
2022/09/13 12:28:50;;;;;;;3.42;2.65;;;25.30;56.60;;;;;;20839845;28;20053;-57
2022/09/13 12:39:09;;;;;;;5.35;3.50;;;25.60;53.10;;;;;;20507367;29;20567;-55
2022/09/13 12:49:44;;;;;;;4.40;1.70;;;25.60;53.00;;;;;;20506644;28;20062;-58
2022/09/13 13:00:16;;;;;;;4.10;2.00;;;26.00;52.50;;;;;;20506034;28;20089;-58
2022/09/13 13:10:31;;;;;;;4.60;1.83;;;26.10;53.00;;;;;;20659958;28;20053;-57
2022/09/13 13:20:51;;;;;;;3.65;1.42;;;26.20;50.80;;;;;;20836027;28;20049;-57
2022/09/13 13:30:55;;;;;;;3.75;1.10;;;26.50;50.50;;;;;;20817059;28;20146;-56
2022/09/13 13:41:07;;;;;;;3.17;1.40;;;26.40;49.30;;;;;;20834250;28;20041;-60
2022/09/13 13:51:16;;;;;;;3.22;1.15;;;26.20;50.90;;;;;;20833880;28;20058;-57
2022/09/13 14:01:22;;;;;;;3.13;1.33;;;25.60;53.10;;;;;;20833340;28;20045;-59
2022/09/13 14:11:38;;;;;;;4.55;1.65;;;25.60;53.60;;;;;;20831741;28;20061;-58
2022/09/13 14:21:41;;;;;;;2.92;1.33;;;25.50;54.00;;;;;;20832393;28;20095;-58
2022/09/13 14:31:44;;;;;;;;;;;25.70;52.10;;;;;;20830941;28;20136;-58
2022/09/13 14:41:46;;;;;;;2.35;1.25;;;26.10;48.90;;;;;;20830242;28;20342;-58
2022/09/13 14:51:55;;;;;;;4.18;1.63;;;26.20;49.40;;;;;;20829983;28;20052;-58
2022/09/13 15:01:57;;;;;;;2.42;1.45;;;25.80;52.80;;;;;;20829113;28;20053;-58
2022/09/13 15:12:00;;;;;;;3.22;1.60;;;26.10;52.70;;;;;;20828877;28;20050;-57
2022/09/13 15:22:04;;;;;;;6.90;1.75;;;26.00;53.10;;;;;;20840730;28;20117;-60
2022/09/13 15:32:24;;;;;;;4.55;1.88;;;26.10;53.00;;;;;;20843823;28;20085;-58
2022/09/13 15:42:25;;;;;;;5.45;1.77;;;26.10;52.70;;;;;;20843994;28;20482;-59
2022/09/13 15:52:26;;;;;;;6.23;3.93;;;25.90;53.30;;;;;;20843909;28;20398;-60
2022/09/13 16:02:31;;;;;;;4.77;1.70;;;26.00;52.90;;;;;;20843270;28;20085;-58
2022/09/13 16:12:33;;;;;;;6.60;1.73;;;26.30;51.90;;;;;;20842443;28;20104;-61
2022/09/13 16:22:35;;;;;;;;;;;26.40;51.50;;;;;;20841512;28;20421;-59
2022/09/13 16:32:37;;;;;;;;;;;26.70;50.20;;;;;;20839279;28;20366;-60
2022/09/13 16:42:38;;;;;;;4.38;1.20;;;26.40;48.10;;;;;;20839862;28;20392;-59
2022/09/13 16:52:40;;;;;;;4.40;1.23;;;26.30;45.30;;;;;;20838663;28;20490;-60
2022/09/13 17:02:41;;;;;;;5.28;1.40;;;26.40;44.60;;;;;;20837232;28;20053;-59
2022/09/13 17:12:43;;;;;;;4.05;1.25;;;26.00;45.90;;;;;;20836305;28;20053;-62
2022/09/13 17:22:45;;;;;;;5.45;1.88;;;26.00;46.10;;;;;;20835696;28;20104;-59
2022/09/13 17:32:47;;;;;;;5.07;1.55;;;25.90;46.10;;;;;;20834400;28;20058;-60
2022/09/13 17:42:49;;;;;;;5.93;1.77;;;25.90;46.10;;;;;;20833951;28;20179;-59
2022/09/13 17:52:51;;;;;;;6.13;2.47;;;25.70;46.30;;;;;;20833688;28;20355;-60
2022/09/13 18:02:53;;;;;;;3.50;1.60;;;25.60;47.80;;;;;;20833088;28;20050;-58
2022/09/13 18:12:54;;;;;;;4.00;1.50;;;25.50;48.30;;;;;;20833102;28;20132;-60
2022/09/13 18:22:56;;;;;;;6.60;1.50;;;25.40;48.40;;;;;;20831861;28;20060;-59
2022/09/13 18:32:58;;;;;;;4.33;1.80;;;25.30;48.30;;;;;;20830666;28;20057;-59
2022/09/13 18:42:59;;;;;;;5.63;1.50;;;25.10;48.40;;;;;;20831162;28;20046;-59
2022/09/13 18:53:01;;;;;;;4.17;1.70;;;25.10;48.80;;;;;;20837770;28;20137;-59
2022/09/13 19:03:03;;;;;;;4.13;1.60;;;25.00;49.40;;;;;;20857322;28;20053;-59
2022/09/13 19:13:05;;;;;;;;;;;24.90;49.70;;;;;;20856552;28;20061;-58
2022/09/13 19:23:07;;;;;;;8.17;5.30;;;23.80;55.20;;;;;;20855879;28;19921;-57
2022/09/13 19:33:09;;;;;;;3.43;1.47;;;23.40;57.30;;;;;;20855662;28;20061;-60
2022/09/13 19:43:11;;;;;;;6.85;3.15;;;23.50;54.20;;;;;;20855890;28;20041;-60
2022/09/13 19:53:12;;;;;;;6.43;1.43;;;23.10;51.40;;;;;;20854669;28;20049;-59
2022/09/13 20:03:14;;;;;;;3.28;1.40;;;23.10;51.60;;;;;;20851222;28;20060;-60
2022/09/13 20:13:16;;;;;;;30.87;23.30;;;23.10;51.80;;;;;;20840878;28;20064;-61
2022/09/13 20:23:18;;;;;;;3.00;1.80;;;23.00;52.30;;;;;;20841544;28;20048;-61
2022/09/13 20:33:20;;;;;;;;;;;23.00;52.40;;;;;;20841061;28;20092;-58
2022/09/13 20:43:22;;;;;;;2.90;1.20;;;22.80;52.70;;;;;;20839906;28;19920;-61
2022/09/13 20:53:24;;;;;;;4.03;2.00;;;22.80;52.60;;;;;;20838662;28;20635;-60
2022/09/13 21:03:26;;;;;;;1.83;1.10;;;22.80;52.80;;;;;;20837887;28;20053;-59
2022/09/13 21:13:39;;;;;;;3.93;1.13;;;22.90;52.50;;;;;;20836508;28;20060;-58
2022/09/13 21:23:41;;;;;;;2.42;1.10;;;22.90;52.20;;;;;;20836806;28;20056;-58
2022/09/13 21:33:43;;;;;;;2.23;1.23;;;22.90;52.20;;;;;;20835154;28;20424;-58
2022/09/13 21:43:44;;;;;;;2.80;1.83;;;22.90;52.80;;;;;;20835648;28;20053;-57
2022/09/13 21:53:48;;;;;;;2.43;1.10;;;22.90;53.20;;;;;;20834652;28;20432;-60
2022/09/13 22:03:51;;;;;;;2.10;1.00;;;22.50;56.70;;;;;;20833112;28;20107;-60
2022/09/13 22:13:54;;;;;;;3.65;1.23;;;22.20;58.90;;;;;;20833392;28;20390;-60
2022/09/13 22:23:57;;;;;;;4.25;1.60;;;22.00;60.30;;;;;;20832353;28;20077;-60
2022/09/13 22:34:00;;;;;;;3.85;1.35;;;21.70;61.40;;;;;;20830029;28;20053;-58
2022/09/13 22:44:03;;;;;;;3.72;1.73;;;21.70;61.50;;;;;;20830642;28;20107;-57
2022/09/13 22:54:06;;;;;;;4.83;1.97;;;21.60;62.20;;;;;;20813281;28;20096;-62
2022/09/13 23:04:08;;;;;;;5.82;2.22;;;21.60;62.80;;;;;;20830641;28;20115;-56
2022/09/13 23:14:13;;;;;;;3.45;1.50;;;21.40;63.90;;;;;;20830824;28;20517;-59
2022/09/13 23:24:16;;;;;;;5.20;2.75;;;21.30;64.00;;;;;;20829237;28;20407;-57
2022/09/13 23:34:18;;;;;;;6.28;1.95;;;21.30;64.00;;;;;;20828290;28;20103;-56
2022/09/13 23:44:20;;;;;;;3.40;1.70;;;21.20;64.00;;;;;;20839760;28;20050;-57
2022/09/13 23:54:22;;;;;;;3.00;1.10;;;21.20;62.60;;;;;;20825512;28;20077;-55
